createdAt,value
2022-08-04T00:02:18.915Z,119.70
2022-08-04T00:05:01.302Z,117.28
2022-08-04T00:07:44.991Z,124.38
2022-08-04T00:10:17.386Z,127.18
2022-08-04T00:12:48.659Z,128.75
2022-08-04T00:15:17.176Z,117.80
2022-08-04T00:18:19.592Z,131.85
2022-08-04T00:20:46.799Z,124.50
2022-08-04T00:23:15.035Z,116.85
2022-08-04T00:25:42.267Z,133.70
2022-08-04T00:28:10.226Z,122.00
2022-08-04T00:30:37.779Z,135.57
2022-08-04T00:33:04.918Z,131.70
2022-08-04T00:35:33.657Z,131.82
2022-08-04T00:38:03.483Z,114.22
2022-08-04T00:40:36.888Z,134.45
2022-08-04T00:43:10.398Z,130.25
2022-08-04T00:46:15.743Z,128.10
2022-08-04T00:48:33.586Z,123.85
2022-08-04T00:51:16.238Z,125.45
2022-08-04T00:54:05.761Z,111.43
2022-08-04T00:57:29.887Z,118.87
2022-08-04T01:00:14.655Z,109.45
2022-08-04T01:03:02.946Z,113.65
2022-08-04T01:05:37.939Z,111.82
2022-08-04T01:08:41.101Z,124.03
2022-08-04T01:11:56.255Z,111.65
2022-08-04T01:14:48.625Z,99.95
2022-08-04T01:17:28.710Z,110.38
2022-08-04T01:20:10.048Z,105.25
2022-08-04T01:23:08.788Z,112.95
2022-08-04T01:26:42.680Z,107.47
2022-08-04T01:29:09.750Z,103.90
2022-08-04T01:32:00.723Z,107.90
2022-08-04T01:34:31.528Z,106.22
2022-08-04T01:37:15.851Z,115.00
2022-08-04T01:39:52.296Z,107.55
2022-08-04T01:42:31.921Z,117.32
2022-08-04T01:45:06.260Z,110.57
2022-08-04T01:47:36.448Z,108.78
2022-08-04T01:50:10.081Z,113.93
2022-08-04T01:52:40.094Z,102.53
2022-08-04T01:55:10.359Z,109.20
2022-08-04T01:57:47.243Z,105.15
2022-08-04T02:00:22.989Z,111.53
2022-08-04T02:02:51.678Z,107.32
2022-08-04T02:05:21.542Z,115.00
2022-08-04T02:08:03.385Z,97.88
2022-08-04T02:10:50.443Z,107.18
2022-08-04T02:13:32.136Z,102.82
2022-08-04T02:16:13.857Z,88.28
2022-08-04T02:19:14.818Z,103.90
2022-08-04T02:21:44.763Z,95.72
2022-08-04T02:24:18.843Z,101.07
2022-08-04T02:26:53.614Z,91.57
2022-08-04T02:29:36.004Z,97.97
2022-08-04T02:32:14.253Z,96.43
2022-08-04T02:35:05.658Z,87.38
2022-08-04T02:37:33.505Z,83.35
2022-08-04T02:40:03.966Z,97.18
2022-08-04T02:45:00.856Z,62.92
2022-08-04T02:48:29.656Z,85.60
2022-08-04T02:50:29.068Z,91.53
2022-08-04T02:53:00.461Z,93.78
2022-08-04T02:55:29.985Z,79.10
2022-08-04T02:57:58.951Z,105.13
2022-08-04T03:00:26.664Z,87.43
2022-08-04T03:02:59.598Z,92.45
2022-08-04T03:05:54.142Z,82.90
2022-08-04T03:08:39.184Z,94.13
2022-08-04T03:11:16.968Z,91.45
2022-08-04T03:14:27.867Z,92.32
2022-08-04T03:17:25.916Z,70.50
2022-08-04T03:19:53.004Z,82.38
2022-08-04T03:23:11.717Z,83.40
2022-08-04T03:26:08.483Z,69.18
2022-08-04T03:29:14.092Z,71.57
2022-08-04T03:32:38.151Z,63.33
2022-08-04T03:35:34.549Z,73.10
2022-08-04T03:38:19.966Z,86.53
2022-08-04T03:40:59.287Z,82.85
2022-08-04T03:43:58.279Z,82.97
2022-08-04T03:46:44.211Z,70.30
2022-08-04T03:49:40.380Z,84.35
2022-08-04T03:53:10.468Z,75.43
2022-08-04T03:56:28.119Z,63.50
2022-08-04T03:59:06.820Z,72.40
2022-08-04T04:02:02.525Z,75.35
2022-08-04T04:04:41.469Z,84.55
2022-08-04T04:07:36.383Z,86.25
2022-08-04T04:10:21.466Z,75.75
2022-08-04T04:13:12.553Z,77.78
2022-08-04T04:16:07.447Z,80.18
2022-08-04T04:19:00.735Z,78.68
2022-08-04T04:21:48.562Z,81.70
2022-08-04T04:24:43.021Z,86.85
2022-08-04T04:27:29.571Z,80.22
2022-08-04T04:30:01.694Z,81.55
2022-08-04T04:32:38.065Z,88.97
2022-08-04T04:35:19.645Z,89.35
2022-08-04T04:37:48.085Z,75.97
2022-08-04T04:40:41.462Z,90.35
2022-08-04T04:43:18.042Z,80.35
2022-08-04T04:46:06.100Z,75.82
2022-08-04T04:48:43.070Z,74.55
2022-08-04T04:51:37.692Z,76.63
2022-08-04T04:54:22.159Z,79.65
2022-08-04T04:57:01.733Z,69.45
2022-08-04T04:59:37.061Z,74.60
2022-08-04T05:02:21.978Z,86.32
2022-08-04T05:05:03.523Z,70.80
2022-08-04T05:07:52.980Z,79.53
2022-08-04T05:10:51.256Z,78.75
2022-08-04T05:14:36.038Z,79.18
2022-08-04T05:16:44.919Z,73.65
2022-08-04T05:19:11.953Z,80.07
2022-08-04T05:21:48.217Z,86.82
2022-08-04T05:24:22.440Z,86.80
2022-08-04T05:26:56.313Z,105.70
2022-08-04T05:29:38.049Z,87.30
2022-08-04T05:32:13.439Z,94.82
2022-08-04T05:34:45.266Z,80.55
2022-08-04T05:37:17.813Z,89.20
2022-08-04T05:39:49.959Z,93.80
2022-08-04T05:42:17.108Z,75.57
2022-08-04T05:44:50.467Z,84.53
2022-08-04T05:47:21.558Z,78.47
2022-08-04T05:49:55.536Z,81.70
2022-08-04T05:52:29.889Z,77.70
2022-08-04T05:54:58.586Z,76.82
2022-08-04T05:57:26.266Z,83.90
2022-08-04T05:59:57.575Z,89.65
2022-08-04T06:02:25.653Z,80.07
2022-08-04T06:04:53.495Z,78.65
2022-08-04T06:07:20.805Z,91.05
2022-08-04T06:09:48.157Z,97.07
2022-08-04T06:12:32.700Z,95.65
2022-08-04T06:15:01.389Z,89.35
2022-08-04T06:18:37.000Z,77.47
2022-08-04T06:20:34.517Z,76.65
2022-08-04T06:23:07.506Z,79.03
2022-08-04T06:25:46.500Z,81.13
2022-08-04T06:28:15.460Z,102.63
2022-08-04T06:30:47.724Z,50.63
2022-08-04T06:33:27.776Z,62.78
2022-08-04T06:35:56.617Z,50.30
2022-08-04T06:38:25.986Z,84.32
2022-08-04T06:40:54.933Z,69.22
2022-08-04T06:43:23.175Z,56.80
2022-08-04T06:45:52.217Z,41.97
2022-08-04T06:48:21.689Z,47.53
2022-08-04T06:51:27.332Z,47.83
2022-08-04T06:53:48.245Z,31.27
2022-08-04T06:56:17.534Z,41.53
2022-08-04T06:58:46.757Z,31.95
2022-08-04T07:01:17.048Z,58.03
2022-08-04T07:03:44.615Z,45.25
2022-08-04T07:06:19.067Z,48.30
2022-08-04T07:08:49.613Z,58.47
2022-08-04T07:13:46.598Z,65.57
2022-08-04T07:16:18.434Z,46.00
2022-08-04T07:18:45.823Z,60.72
2022-08-04T07:21:21.014Z,58.55
2022-08-04T07:23:48.810Z,78.30
2022-08-04T07:26:17.345Z,68.90
2022-08-04T07:28:44.743Z,46.97
2022-08-04T07:31:35.274Z,59.30
2022-08-04T07:34:16.804Z,44.75
2022-08-04T07:36:50.898Z,42.33
2022-08-04T07:39:28.645Z,49.00
2022-08-04T07:41:58.155Z,68.32
2022-08-04T07:44:25.876Z,41.13
2022-08-04T07:46:54.023Z,69.55
2022-08-04T07:49:55.081Z,40.40
2022-08-04T07:52:09.870Z,40.22
2022-08-04T07:54:39.157Z,40.83
2022-08-04T07:57:06.335Z,27.15
2022-08-04T07:59:35.113Z,29.67
2022-08-04T08:02:03.097Z,44.25
2022-08-04T08:04:30.820Z,31.52
2022-08-04T08:06:58.882Z,34.28
2022-08-04T08:09:26.188Z,31.38
2022-08-04T08:12:35.647Z,27.13
2022-08-04T08:14:42.788Z,32.38
2022-08-04T08:17:09.937Z,26.75
2022-08-04T08:19:38.468Z,18.48
2022-08-04T08:22:06.006Z,20.75
2022-08-04T08:24:36.417Z,20.40
2022-08-04T08:27:04.754Z,25.55
2022-08-04T08:29:35.016Z,28.33
2022-08-04T08:32:08.321Z,24.38
2022-08-04T08:34:37.814Z,21.52
2022-08-04T08:37:29.305Z,26.50
2022-08-04T08:40:02.360Z,24.00
2022-08-04T08:42:54.940Z,19.58
2022-08-04T08:45:53.015Z,17.23
2022-08-04T08:50:00.361Z,14.82
2022-08-04T08:52:05.829Z,12.55
2022-08-04T08:54:38.354Z,10.70
2022-08-04T08:57:24.162Z,17.40
2022-08-04T09:00:14.194Z,13.27
2022-08-04T09:02:47.373Z,15.15
2022-08-04T09:05:14.331Z,16.70
2022-08-04T09:08:15.109Z,21.35
2022-08-04T09:10:50.880Z,25.80
2022-08-04T09:13:21.539Z,20.80
2022-08-04T09:15:57.551Z,24.30
2022-08-04T09:18:43.377Z,19.92
2022-08-04T09:21:38.428Z,23.95
2022-08-04T09:24:36.227Z,21.23
2022-08-04T09:27:10.057Z,15.63
2022-08-04T09:29:41.843Z,24.80
2022-08-04T09:32:30.421Z,23.30
2022-08-04T09:35:13.518Z,27.95
2022-08-04T09:38:05.251Z,18.02
2022-08-04T09:40:57.230Z,26.95
2022-08-04T09:43:59.173Z,17.95
2022-08-04T09:46:37.165Z,10.43
2022-08-04T09:49:28.208Z,19.52
2022-08-04T09:52:09.954Z,19.27
2022-08-04T09:54:46.061Z,28.30
2022-08-04T09:57:36.299Z,26.08
2022-08-04T10:00:13.802Z,13.02
2022-08-04T10:02:52.253Z,16.58
2022-08-04T10:05:26.417Z,19.35
2022-08-04T10:08:16.665Z,16.98
2022-08-04T10:11:11.370Z,15.07
2022-08-04T10:14:02.907Z,17.75
2022-08-04T10:16:40.607Z,16.08
2022-08-04T10:19:30.039Z,17.92
2022-08-04T10:22:28.877Z,16.45
2022-08-04T10:26:02.669Z,17.75
2022-08-04T10:28:06.842Z,14.20
2022-08-04T10:30:37.284Z,15.93
2022-08-04T10:33:10.888Z,15.32
2022-08-04T10:36:03.099Z,23.67
2022-08-04T10:38:56.712Z,16.02
2022-08-04T10:41:59.783Z,13.60
2022-08-04T10:44:45.529Z,21.40
2022-08-04T10:47:22.487Z,15.73
2022-08-04T10:50:01.897Z,18.50
2022-08-04T10:52:48.101Z,21.98
2022-08-04T10:55:20.653Z,21.17
2022-08-04T10:58:01.619Z,26.63
2022-08-04T11:00:31.757Z,26.73
2022-08-04T11:03:01.957Z,21.98
2022-08-04T11:08:08.732Z,14.38
2022-08-04T11:10:46.817Z,29.63
2022-08-04T11:13:22.158Z,34.38
2022-08-04T11:16:02.569Z,24.60
2022-08-04T11:18:44.428Z,30.65
2022-08-04T11:21:26.325Z,25.98
2022-08-04T11:24:03.406Z,25.80
2022-08-04T11:26:45.731Z,30.58
2022-08-04T11:29:25.424Z,34.05
2022-08-04T11:31:53.628Z,23.95
2022-08-04T11:34:23.747Z,38.92
2022-08-04T11:37:14.110Z,34.72
2022-08-04T11:39:52.045Z,52.67
2022-08-04T11:42:30.811Z,52.85
2022-08-04T11:45:04.834Z,48.50
2022-08-04T11:47:54.310Z,44.20
2022-08-04T11:50:53.643Z,52.97
2022-08-04T11:53:26.646Z,46.15
2022-08-04T11:56:09.404Z,48.55
2022-08-04T11:58:38.149Z,37.15
2022-08-04T12:01:44.233Z,35.55
2022-08-04T12:04:26.920Z,24.30
2022-08-04T12:07:30.055Z,31.55
2022-08-04T12:10:41.062Z,48.33
2022-08-04T12:13:28.174Z,45.58
2022-08-04T12:15:58.193Z,51.58
2022-08-04T12:18:34.804Z,69.35
2022-08-04T12:21:09.213Z,76.40
2022-08-04T12:23:41.800Z,102.32
2022-08-04T12:26:17.403Z,113.07
2022-08-04T12:31:48.249Z,162.90
2022-08-04T12:34:34.159Z,206.70
2022-08-04T12:37:30.698Z,200.43
2022-08-04T12:40:28.173Z,180.10
2022-08-04T12:43:15.052Z,133.25
2022-08-04T12:45:49.810Z,94.07
2022-08-04T12:48:21.251Z,143.93
2022-08-04T12:50:59.350Z,208.68
2022-08-04T12:53:50.647Z,225.35
2022-08-04T12:56:26.550Z,263.13
2022-08-04T12:59:01.181Z,320.92
2022-08-04T13:02:09.337Z,399.23
2022-08-04T13:04:28.979Z,548.72
2022-08-04T13:09:53.324Z,573.00
2022-08-04T13:12:32.528Z,539.45
2022-08-04T13:15:10.882Z,479.98
2022-08-04T13:18:11.909Z,379.50
2022-08-04T13:20:45.197Z,287.75
2022-08-04T13:23:21.549Z,325.63
2022-08-04T13:26:42.976Z,392.63
2022-08-04T13:28:43.117Z,456.27
2022-08-04T13:31:19.913Z,423.35
2022-08-04T13:33:53.162Z,437.55
2022-08-04T13:36:25.590Z,447.55
2022-08-04T13:38:57.509Z,498.30
2022-08-04T13:41:30.943Z,578.13
2022-08-04T13:44:18.252Z,553.08
2022-08-04T13:47:05.082Z,593.47
2022-08-04T13:49:42.473Z,687.92
2022-08-04T13:52:26.388Z,741.65
2022-08-04T13:54:53.847Z,782.40
2022-08-04T13:57:33.232Z,800.50
2022-08-04T14:00:09.349Z,759.95
2022-08-04T14:03:23.086Z,773.22
2022-08-04T14:06:15.404Z,746.20
2022-08-04T14:08:56.293Z,769.22
2022-08-04T14:12:09.923Z,775.10
2022-08-04T14:14:32.816Z,698.45
2022-08-04T14:17:20.358Z,651.55
2022-08-04T14:19:56.069Z,622.05
2022-08-04T14:22:26.333Z,638.28
2022-08-04T14:25:09.278Z,591.83
2022-08-04T14:27:45.733Z,523.50
2022-08-04T14:34:00.526Z,411.50
2022-08-04T14:36:04.182Z,435.20
2022-08-04T14:38:45.137Z,440.73
2022-08-04T14:41:13.044Z,371.15
2022-08-04T14:43:57.529Z,353.80
2022-08-04T14:46:36.085Z,336.92
2022-08-04T14:49:04.144Z,287.63
2022-08-04T14:51:45.599Z,315.00
2022-08-04T14:54:18.531Z,291.55
2022-08-04T14:56:55.717Z,239.70
2022-08-04T14:59:24.600Z,207.13
2022-08-04T15:02:00.872Z,206.60
2022-08-04T15:04:29.999Z,173.27
2022-08-04T15:06:57.543Z,157.35
2022-08-04T15:09:25.173Z,133.00
2022-08-04T15:11:52.423Z,138.63
2022-08-04T15:14:36.948Z,108.80
2022-08-04T15:17:12.030Z,114.75
2022-08-04T15:19:56.876Z,112.88
2022-08-04T15:22:24.187Z,116.82
2022-08-04T15:24:54.864Z,127.85
2022-08-04T15:27:30.026Z,159.00
2022-08-04T15:30:04.278Z,155.43
2022-08-04T15:32:38.239Z,157.07
2022-08-04T15:35:08.626Z,175.85
2022-08-04T15:38:07.846Z,163.30
2022-08-04T15:40:59.894Z,166.63
2022-08-04T15:43:45.622Z,182.63
2022-08-04T15:46:42.843Z,184.00
2022-08-04T15:49:22.811Z,203.00
2022-08-04T15:52:04.194Z,207.88
2022-08-04T15:54:39.830Z,215.70
2022-08-04T15:57:10.335Z,211.35
2022-08-04T15:59:58.432Z,216.63
2022-08-04T16:02:37.521Z,223.00
2022-08-04T16:05:18.636Z,193.18
2022-08-04T16:08:08.507Z,220.70
2022-08-04T16:10:36.668Z,210.45
2022-08-04T16:13:20.371Z,233.95
2022-08-04T16:15:55.512Z,218.68
2022-08-04T16:18:28.854Z,239.82
2022-08-04T16:21:02.494Z,211.13
2022-08-04T16:24:15.297Z,213.32
2022-08-04T16:26:56.848Z,207.50
2022-08-04T16:29:28.075Z,211.70
2022-08-04T16:32:11.865Z,218.55
2022-08-04T16:34:49.956Z,235.80
2022-08-04T16:37:21.694Z,215.13
2022-08-04T16:39:50.820Z,241.15
2022-08-04T16:42:32.325Z,227.43
2022-08-04T16:45:19.774Z,225.75
2022-08-04T16:47:49.610Z,204.02
2022-08-04T16:50:18.407Z,224.15
2022-08-04T16:52:51.036Z,211.27
2022-08-04T16:55:27.069Z,220.55
2022-08-04T16:57:58.943Z,223.32
2022-08-04T17:00:31.484Z,241.98
2022-08-04T17:03:01.510Z,256.13
2022-08-04T17:05:39.045Z,216.50
2022-08-04T17:10:56.378Z,255.02
2022-08-04T17:14:04.635Z,255.10
2022-08-04T17:16:21.627Z,253.15
2022-08-04T17:18:51.646Z,262.10
2022-08-04T17:21:28.175Z,240.25
2022-08-04T17:24:14.884Z,217.07
2022-08-04T17:26:53.602Z,202.63
2022-08-04T17:29:42.812Z,231.70
2022-08-04T17:32:15.311Z,207.35
2022-08-04T17:34:46.175Z,183.77
2022-08-04T17:40:11.463Z,189.02
2022-08-04T17:42:40.275Z,206.27
2022-08-04T17:48:09.608Z,185.88
2022-08-04T17:50:36.969Z,189.90
2022-08-04T17:53:12.974Z,169.25
2022-08-04T17:55:43.295Z,190.50
2022-08-04T17:58:20.966Z,124.28
2022-08-04T18:01:23.193Z,127.57
2022-08-04T18:03:52.907Z,117.35
2022-08-04T18:06:23.048Z,128.13
2022-08-04T18:08:58.134Z,126.87
2022-08-04T18:11:29.636Z,193.15
2022-08-04T18:14:10.540Z,164.90
2022-08-04T18:16:44.796Z,180.68
2022-08-04T18:19:15.326Z,200.40
2022-08-04T18:21:45.976Z,213.65
2022-08-04T18:24:35.359Z,170.63
2022-08-04T18:27:21.869Z,116.50
2022-08-04T18:30:14.467Z,230.95
2022-08-04T18:32:36.984Z,148.23
2022-08-04T18:35:18.722Z,167.93
2022-08-04T18:38:06.434Z,169.95
2022-08-04T18:40:53.209Z,169.23
2022-08-04T18:43:28.048Z,162.73
2022-08-04T18:45:59.524Z,125.95
2022-08-04T18:48:36.961Z,127.32
2022-08-04T18:51:22.789Z,166.00
2022-08-04T18:53:55.203Z,127.50
2022-08-04T18:56:32.431Z,132.52
2022-08-04T18:59:04.754Z,148.02
2022-08-04T19:02:13.610Z,159.85
2022-08-04T19:04:33.407Z,149.40
2022-08-04T19:08:02.584Z,159.30
2022-08-04T19:09:57.343Z,156.77
2022-08-04T19:12:26.882Z,148.27
2022-08-04T19:14:58.853Z,165.45
2022-08-04T19:17:53.905Z,173.65
2022-08-04T19:20:25.688Z,202.02
2022-08-04T19:24:27.957Z,155.90
2022-08-04T19:26:02.263Z,166.48
2022-08-04T19:28:34.060Z,190.98
2022-08-04T19:31:07.410Z,191.27
2022-08-04T19:33:59.507Z,202.07
2022-08-04T19:36:27.978Z,188.65
2022-08-04T19:38:59.124Z,181.98
2022-08-04T19:41:27.297Z,210.77
2022-08-04T19:43:54.811Z,163.55
2022-08-04T19:50:02.896Z,189.52
2022-08-04T19:51:56.874Z,180.23
2022-08-04T19:54:27.348Z,198.48
2022-08-04T19:56:54.707Z,209.52
2022-08-04T19:59:22.786Z,207.13
2022-08-04T20:01:50.283Z,197.85
2022-08-04T20:04:17.535Z,141.73
2022-08-04T20:06:44.675Z,184.20
2022-08-04T20:09:26.534Z,203.93
2022-08-04T20:11:58.140Z,185.40
2022-08-04T20:14:32.525Z,199.55
2022-08-04T20:17:10.067Z,192.43
2022-08-04T20:19:38.849Z,203.70
2022-08-04T20:22:08.646Z,188.10
2022-08-04T20:25:01.089Z,180.30
2022-08-04T20:27:59.333Z,194.40
2022-08-04T20:30:28.499Z,170.23
2022-08-04T20:32:56.639Z,173.65
2022-08-04T20:35:27.054Z,192.32
2022-08-04T20:38:00.322Z,150.48
2022-08-04T20:40:29.190Z,163.85
2022-08-04T20:43:00.350Z,164.70
2022-08-04T20:45:57.093Z,153.27
2022-08-04T20:48:15.213Z,159.15
2022-08-04T20:50:46.095Z,165.57
2022-08-04T20:53:16.576Z,150.90
2022-08-04T20:55:54.708Z,145.30
2022-08-04T20:58:27.399Z,198.95
2022-08-04T21:00:55.659Z,178.23
2022-08-04T21:03:49.840Z,149.43
2022-08-04T21:06:10.297Z,157.07
2022-08-04T21:08:37.587Z,135.88
2022-08-04T21:11:06.946Z,127.68
2022-08-04T21:13:50.667Z,153.17
2022-08-04T21:16:53.768Z,138.70
2022-08-04T21:19:13.082Z,153.10
2022-08-04T21:21:42.382Z,133.98
2022-08-04T21:24:10.187Z,144.93
2022-08-04T21:26:42.837Z,127.38
2022-08-04T21:29:14.523Z,130.68
2022-08-04T21:31:51.053Z,122.93
2022-08-04T21:34:39.091Z,124.30
2022-08-04T21:37:09.354Z,137.32
2022-08-04T21:42:39.045Z,123.05
2022-08-04T21:45:10.125Z,146.50
2022-08-04T21:47:46.784Z,132.43
2022-08-04T21:50:19.969Z,168.52
2022-08-04T21:52:49.188Z,142.70
2022-08-04T21:55:17.203Z,143.13
2022-08-04T21:57:46.255Z,135.88
2022-08-04T22:03:03.853Z,137.70
2022-08-04T22:05:32.774Z,145.88
2022-08-04T22:08:00.030Z,137.57
2022-08-04T22:18:41.059Z,138.82
2022-08-04T22:21:09.614Z,136.20
2022-08-04T22:23:45.173Z,137.77
2022-08-04T22:26:14.490Z,140.70
2022-08-04T22:28:49.328Z,128.15
2022-08-04T22:31:24.005Z,137.10
2022-08-04T22:33:54.648Z,143.13
2022-08-04T22:36:24.789Z,168.02
2022-08-04T22:39:04.472Z,9.10
2022-08-04T22:41:48.699Z,4.15
2022-08-04T22:44:21.922Z,5.32
2022-08-04T22:46:50.976Z,2.90
2022-08-04T22:49:18.044Z,5.10
2022-08-04T22:51:52.165Z,6.43
2022-08-04T22:54:19.225Z,5.60
2022-08-04T22:56:46.488Z,49.83
2022-08-04T22:59:14.115Z,53.72
2022-08-04T23:01:59.102Z,37.30
2022-08-04T23:04:31.490Z,49.42
2022-08-04T23:07:00.655Z,54.80
2022-08-04T23:09:50.061Z,43.75
2022-08-04T23:12:27.310Z,46.80
2022-08-04T23:14:56.583Z,45.03
2022-08-04T23:17:25.231Z,56.58
2022-08-04T23:19:58.678Z,50.00
2022-08-04T23:22:37.439Z,42.63
2022-08-04T23:25:16.358Z,39.95
2022-08-04T23:27:51.650Z,56.08
2022-08-04T23:30:24.384Z,60.38
2022-08-04T23:32:56.463Z,45.97
2022-08-04T23:35:24.018Z,80.72
2022-08-04T23:37:56.805Z,89.68
2022-08-04T23:40:32.371Z,69.82
2022-08-04T23:43:01.934Z,80.47
2022-08-04T23:46:08.318Z,96.32
2022-08-04T23:48:20.842Z,65.30
2022-08-04T23:50:48.681Z,98.15
2022-08-04T23:53:18.312Z,89.80
2022-08-04T23:55:45.913Z,93.80
2022-08-04T23:58:18.651Z,122.25
